Time;durP1;ratioP1;P1;durP2;ratioP2;P2;SDS_P1;SDS_P2;PMS_P1;PMS_P2;Temp;Humidity;BMP_temperature;BMP_pressure;BME280_temperature;BME280_humidity;BME280_pressure;Samples;Min_cycle;Max_cycle;Signal;HPM_P1;HPM_P2
2021/05/27 00:01:10;;;;;;;10.45;5.53;;;;;;;10.00;77.01;100729.63;5055704;28;20114;-51
2021/05/27 00:03:36;;;;;;;9.45;6.38;;;;;;;9.91;77.79;100726.16;5064540;27;20072;-49
2021/05/27 00:06:01;;;;;;;9.32;6.05;;;;;;;9.97;78.38;100728.75;5059741;28;20299;-53
2021/05/27 00:08:27;;;;;;;8.70;5.72;;;;;;;9.91;77.96;100724.41;5062902;28;20039;-52
2021/05/27 00:10:53;;;;;;;9.50;5.72;;;;;;;10.14;77.67;100726.13;5064946;28;20067;-53
2021/05/27 00:13:18;;;;;;;8.32;5.63;;;;;;;10.01;77.40;100730.47;5061754;27;21082;-53
2021/05/27 00:15:44;;;;;;;9.25;5.57;;;;;;;9.95;77.70;100731.38;5072968;28;20048;-55
2021/05/27 00:18:10;;;;;;;10.25;5.95;;;;;;;9.93;77.60;100732.22;5077297;28;20040;-51
2021/05/27 00:20:36;;;;;;;12.40;5.57;;;;;;;9.95;78.17;100735.72;5062510;28;20047;-53
2021/05/27 00:23:02;;;;;;;8.30;5.47;;;;;;;9.88;77.65;100738.34;5086538;28;20048;-53
2021/05/27 00:25:27;;;;;;;9.85;5.90;;;;;;;10.05;77.70;100738.34;5084553;28;20085;-51
2021/05/27 00:27:53;;;;;;;9.50;6.10;;;;;;;9.79;77.85;100742.69;5074441;28;20051;-54
2021/05/27 00:30:20;;;;;;;9.20;6.05;;;;;;;9.80;78.03;100742.72;5061252;28;20596;-53
2021/05/27 00:32:46;;;;;;;9.25;5.75;;;;;;;9.91;78.38;100745.28;5082943;28;20105;-51
2021/05/27 00:35:12;;;;;;;11.25;6.35;;;;;;;9.96;77.46;100740.09;5067541;28;20043;-52
2021/05/27 00:37:39;;;;;;;9.70;6.85;;;;;;;9.84;77.57;100736.63;5080692;28;20039;-49
2021/05/27 00:40:07;;;;;;;10.80;6.18;;;;;;;9.89;78.33;100737.47;5075847;28;20056;-50
2021/05/27 00:42:33;;;;;;;9.05;5.95;;;;;;;10.13;77.40;100750.50;5081537;28;20114;-52
2021/05/27 00:45:04;;;;;;;9.82;5.82;;;;;;;9.98;76.79;100746.16;5080455;28;20036;-51
2021/05/27 00:47:30;;;;;;;10.88;6.20;;;;;;;9.99;77.58;100743.53;5080729;28;20039;-51
2021/05/27 00:49:56;;;;;;;9.18;6.32;;;;;;;9.90;77.87;100743.56;5084938;28;20035;-54
2021/05/27 00:52:22;;;;;;;11.52;5.97;;;;;;;9.84;78.03;100738.34;5077759;28;20067;-51
2021/05/27 00:54:50;;;;;;;10.70;6.20;;;;;;;9.71;78.71;100748.78;5080561;28;20032;-54
2021/05/27 00:57:25;;;;;;;10.00;6.05;;;;;;;9.87;78.91;100743.56;5039530;28;20036;-51
2021/05/27 00:59:51;;;;;;;8.88;5.72;;;;;;;9.95;78.25;100749.66;5037514;28;20040;-50
2021/05/27 01:02:17;;;;;;;11.68;5.45;;;;;;;9.75;78.66;100744.44;5083138;28;20030;-53
2021/05/27 01:04:43;;;;;;;8.55;5.53;;;;;;;9.71;78.83;100753.16;5083165;28;20484;-54
2021/05/27 01:07:12;;;;;;;9.57;5.35;;;;;;;9.82;79.02;100743.56;5084334;28;20055;-50
2021/05/27 01:09:43;;;;;;;10.77;6.75;;;;;;;9.90;78.07;100746.19;5078981;28;21097;-51
2021/05/27 01:12:10;;;;;;;10.13;6.10;;;;;;;10.02;77.41;100742.69;5060457;28;20040;-51
2021/05/27 01:17:23;;;;;;;10.32;6.22;;;;;;;9.88;77.32;100750.53;5063756;28;20040;-52
2021/05/27 01:19:51;;;;;;;9.65;6.07;;;;;;;9.78;78.97;100757.50;5048834;28;20024;-51
2021/05/27 01:22:19;;;;;;;11.38;7.00;;;;;;;9.71;78.03;100758.38;5080106;28;20130;-53
2021/05/27 01:24:45;;;;;;;9.63;6.80;;;;;;;9.91;77.63;100754.88;5045913;28;20093;-50
2021/05/27 01:27:11;;;;;;;10.05;6.68;;;;;;;9.86;78.00;100755.75;5080311;28;20048;-52
2021/05/27 01:29:37;;;;;;;10.70;6.45;;;;;;;9.77;77.67;100752.28;5062547;28;20043;-53
2021/05/27 01:32:03;;;;;;;12.82;6.28;;;;;;;9.87;78.06;100756.59;5068445;28;20386;-50
2021/05/27 01:34:31;;;;;;;9.85;5.90;;;;;;;9.87;79.23;100744.44;5054833;28;20045;-53
2021/05/27 01:36:57;;;;;;;11.45;6.78;;;;;;;9.79;78.53;100751.41;5080931;28;20385;-52
2021/05/27 01:39:22;;;;;;;10.38;6.15;;;;;;;9.82;79.04;100753.16;5075949;28;20040;-54
2021/05/27 01:41:51;;;;;;;13.23;7.05;;;;;;;9.70;79.11;100756.63;5027262;28;20043;-52
2021/05/27 01:44:17;;;;;;;11.07;6.78;;;;;;;9.82;78.84;100756.63;5060460;28;20101;-50
2021/05/27 01:46:42;;;;;;;12.27;5.88;;;;;;;9.81;78.46;100752.25;5041309;28;20045;-54
2021/05/27 01:49:09;;;;;;;10.77;6.47;;;;;;;9.77;78.71;100755.75;5059809;28;20422;-53
2021/05/27 01:51:35;;;;;;;11.00;6.47;;;;;;;9.61;78.67;100752.28;5035410;28;20040;-51
2021/05/27 01:54:03;;;;;;;8.50;6.03;;;;;;;9.64;78.91;100754.88;5063338;28;20053;-51
2021/05/27 01:56:29;;;;;;;9.10;6.60;;;;;;;9.81;77.96;100757.47;5048892;28;20040;-51
2021/05/27 01:59:04;;;;;;;8.95;6.25;;;;;;;9.84;78.74;100754.91;5063480;28;20359;-51
2021/05/27 02:01:33;;;;;;;10.05;6.90;;;;;;;9.71;79.19;100766.19;5046182;28;21075;-52
2021/05/27 02:03:59;;;;;;;12.27;6.43;;;;;;;9.85;78.51;100766.19;5083762;28;20059;-51
2021/05/27 02:06:25;;;;;;;9.25;6.13;;;;;;;9.78;79.73;100759.25;5077787;28;20850;-50
2021/05/27 02:11:44;;;;;;;11.75;6.55;;;;;;;9.69;78.57;100755.75;5044992;28;20042;-52
2021/05/27 02:14:13;;;;;;;9.57;6.35;;;;;;;9.65;79.77;100763.56;5075333;28;20122;-54
2021/05/27 02:16:40;;;;;;;10.32;6.72;;;;;;;9.76;79.63;100760.97;5062342;28;20043;-53
2021/05/27 02:19:08;;;;;;;9.82;6.78;;;;;;;9.55;80.81;100765.31;5055678;28;20084;-52
2021/05/27 02:21:37;;;;;;;9.10;6.18;;;;;;;9.58;80.05;100769.66;5062319;28;20448;-53
2021/05/27 02:24:07;;;;;;;10.30;6.57;;;;;;;9.67;78.93;100762.72;5074587;28;20123;-53
2021/05/27 02:26:34;;;;;;;;;;;;;;;9.62;78.93;100768.78;5051440;28;20355;-54
2021/05/27 02:29:05;;;;;;;11.27;6.55;;;;;;;9.75;78.84;100767.06;5084798;28;20536;-51
2021/05/27 02:31:35;;;;;;;12.23;7.90;;;;;;;9.61;79.76;100764.44;5060353;28;20097;-53
2021/05/27 02:34:03;;;;;;;11.82;6.70;;;;;;;9.68;79.70;100768.81;5062987;28;20040;-50
2021/05/27 02:36:30;;;;;;;10.38;6.78;;;;;;;9.74;79.66;100763.59;5043779;28;20040;-50
2021/05/27 02:38:57;;;;;;;12.65;7.32;;;;;;;9.98;78.25;100767.94;5062598;28;20092;-51
2021/05/27 02:41:27;;;;;;;13.07;7.60;;;;;;;9.87;78.38;100767.06;5069485;28;20031;-52
2021/05/27 02:43:54;;;;;;;11.27;7.10;;;;;;;9.88;79.07;100767.09;5041486;28;20410;-50
2021/05/27 02:46:23;;;;;;;;;;;;;;;9.84;78.98;100764.44;5061891;28;20061;-51
2021/05/27 02:48:52;;;;;;;11.18;6.43;;;;;;;9.91;78.85;100767.94;5049787;28;20311;-50
2021/05/27 02:51:18;;;;;;;15.32;7.10;;;;;;;9.77;79.35;100760.97;5042415;28;20056;-50
2021/05/27 02:53:44;;;;;;;10.57;6.75;;;;;;;9.74;79.58;100768.81;5060675;28;20039;-51
2021/05/27 02:56:12;;;;;;;13.55;8.05;;;;;;;9.55;79.99;100770.53;5040377;28;20403;-52
2021/05/27 02:58:42;;;;;;;12.07;7.00;;;;;;;9.71;79.29;100766.19;5079975;28;20508;-51
2021/05/27 03:01:08;;;;;;;12.80;7.70;;;;;;;9.74;79.17;100762.72;5059622;28;20521;-49
2021/05/27 03:03:38;;;;;;;12.55;8.13;;;;;;;9.71;79.19;100769.66;5083210;28;20504;-51
2021/05/27 03:06:05;;;;;;;13.00;7.75;;;;;;;9.71;80.42;100768.81;5039760;28;20053;-49
2021/05/27 03:08:36;;;;;;;10.40;6.85;;;;;;;9.71;80.50;100768.81;5058323;28;20435;-52
2021/05/27 03:11:03;;;;;;;12.50;7.25;;;;;;;9.67;80.74;100778.38;5065162;28;20045;-50
2021/05/27 03:13:30;;;;;;;11.60;7.60;;;;;;;9.64;80.52;100774.91;5068477;28;20044;-50
2021/05/27 03:15:56;;;;;;;12.88;8.15;;;;;;;9.79;79.86;100774.91;5057627;28;20516;-50
2021/05/27 03:18:27;;;;;;;10.75;7.60;;;;;;;9.88;79.38;100771.41;5072924;28;20251;-50
2021/05/27 03:20:54;;;;;;;12.82;8.15;;;;;;;9.81;81.36;100777.50;5069364;28;20589;-49
2021/05/27 03:23:21;;;;;;;13.20;7.72;;;;;;;9.71;80.55;100772.28;5072864;28;20657;-50
2021/05/27 03:25:47;;;;;;;13.02;8.40;;;;;;;9.81;80.83;100777.50;5071752;28;20105;-54
2021/05/27 03:28:13;;;;;;;13.95;8.02;;;;;;;9.79;81.39;100774.91;5067190;28;20101;-51
2021/05/27 03:30:41;;;;;;;15.02;8.40;;;;;;;9.66;82.28;100775.75;5065962;28;20047;-49
2021/05/27 03:33:09;;;;;;;16.25;9.13;;;;;;;9.61;83.16;100777.47;5065265;28;20047;-51
2021/05/27 03:35:35;;;;;;;15.63;9.25;;;;;;;9.67;82.91;100788.81;5060590;28;20574;-53
2021/05/27 03:38:03;;;;;;;17.53;10.53;;;;;;;9.61;83.44;100787.94;5055029;28;20047;-51
2021/05/27 03:40:30;;;;;;;15.65;9.50;;;;;;;9.69;82.72;100786.19;5065347;28;20056;-51
2021/05/27 03:42:57;;;;;;;15.20;10.13;;;;;;;9.53;84.32;100788.78;5067194;28;20595;-50
2021/05/27 03:45:31;;;;;;;15.57;10.10;;;;;;;9.68;84.29;100790.56;5068589;28;20068;-53
2021/05/27 03:48:07;;;;;;;14.77;10.07;;;;;;;9.63;83.73;100791.44;5077629;28;20037;-49
2021/05/27 03:50:33;;;;;;;15.57;10.25;;;;;;;9.53;83.63;100794.00;5042182;28;20028;-50
2021/05/27 03:53:04;;;;;;;15.97;10.50;;;;;;;9.43;84.40;100789.66;5045899;28;20549;-51
2021/05/27 03:55:29;;;;;;;14.60;9.82;;;;;;;9.49;83.28;100788.78;5062704;28;20135;-51
2021/05/27 03:57:58;;;;;;;18.45;10.75;;;;;;;9.49;84.18;100787.03;5042989;28;20028;-51
2021/05/27 04:00:42;;;;;;;17.92;10.77;;;;;;;9.65;83.86;100792.28;5059259;28;20113;-52
2021/05/27 04:03:22;;;;;;;15.27;10.48;;;;;;;9.64;82.62;100790.56;5011013;28;20039;-53
2021/05/27 04:08:32;;;;;;;17.15;10.93;;;;;;;9.51;84.50;100797.47;5077555;28;20085;-50
2021/05/27 04:10:59;;;;;;;15.65;9.68;;;;;;;9.63;83.64;100799.25;5065868;28;20049;-50
2021/05/27 04:13:25;;;;;;;17.33;10.52;;;;;;;9.52;83.72;100804.44;5081036;28;20035;-50
2021/05/27 04:15:51;;;;;;;17.15;10.25;;;;;;;9.62;82.84;100802.72;5082735;28;20051;-53
2021/05/27 04:18:18;;;;;;;16.67;9.85;;;;;;;9.51;83.61;100810.53;5082458;28;20040;-51
2021/05/27 04:20:50;;;;;;;13.50;9.50;;;;;;;9.45;83.49;100810.53;5080286;28;20289;-55
2021/05/27 04:23:32;;;;;;;15.35;9.60;;;;;;;9.47;83.96;100806.19;5067895;28;20438;-50
2021/05/27 04:26:00;;;;;;;13.77;9.45;;;;;;;9.69;83.04;100807.97;5082488;28;20032;-50
2021/05/27 04:28:26;;;;;;;14.88;9.85;;;;;;;9.62;83.37;100808.84;5078036;28;20089;-50
2021/05/27 04:31:13;;;;;;;12.95;9.68;;;;;;;9.72;82.18;100807.09;5083061;28;20040;-52
2021/05/27 04:33:47;;;;;;;13.90;9.07;;;;;;;9.71;82.90;100810.59;5079270;28;20051;-51
2021/05/27 04:36:15;;;;;;;14.43;9.75;;;;;;;9.77;82.85;100810.56;5047595;28;20133;-50
2021/05/27 04:38:42;;;;;;;17.90;9.68;;;;;;;9.63;82.73;100810.56;5065378;28;20044;-50
2021/05/27 04:41:08;;;;;;;15.30;9.02;;;;;;;9.73;81.98;100819.28;5066762;28;20493;-52
2021/05/27 04:43:40;;;;;;;14.02;9.25;;;;;;;9.71;82.96;100821.03;5078338;28;20063;-51
2021/05/27 04:46:07;;;;;;;14.07;9.70;;;;;;;9.67;83.33;100816.66;5053334;28;20065;-51
2021/05/27 04:48:32;;;;;;;16.55;9.68;;;;;;;9.40;83.42;100818.38;5083556;28;20088;-51
2021/05/27 04:50:58;;;;;;;15.93;9.05;;;;;;;9.58;83.62;100824.47;5080075;28;20044;-51
2021/05/27 04:53:25;;;;;;;16.58;8.85;;;;;;;9.53;84.01;100827.94;5081523;28;20032;-52
2021/05/27 04:55:52;;;;;;;15.38;9.48;;;;;;;9.42;83.67;100829.66;5041368;28;20063;-52
2021/05/27 04:58:18;;;;;;;17.63;9.75;;;;;;;9.40;83.81;100825.31;5082555;28;20036;-53
2021/05/27 05:00:44;;;;;;;14.98;8.90;;;;;;;9.64;82.83;100830.56;5046166;28;20040;-50
2021/05/27 05:03:10;;;;;;;16.88;9.10;;;;;;;9.65;83.78;100829.72;5040412;28;20040;-50
2021/05/27 05:05:37;;;;;;;13.98;9.40;;;;;;;9.47;84.11;100833.16;5059761;28;20080;-51
2021/05/27 05:08:04;;;;;;;16.23;9.50;;;;;;;9.39;84.33;100832.25;5062988;28;20313;-50
2021/05/27 05:10:33;;;;;;;12.70;8.60;;;;;;;9.57;83.09;100836.66;5061849;28;20124;-51
2021/05/27 05:12:59;;;;;;;;;;;;;;;9.50;84.15;100833.16;5082619;28;20032;-51
2021/05/27 05:15:31;;;;;;;12.93;8.30;;;;;;;9.58;83.85;100837.53;5060332;28;20835;-53
2021/05/27 05:17:58;;;;;;;16.15;9.20;;;;;;;9.42;84.11;100840.09;5079262;28;20036;-51
2021/05/27 05:20:27;;;;;;;16.80;9.15;;;;;;;9.48;84.62;100841.84;5061354;28;20114;-52
2021/05/27 05:22:53;;;;;;;15.63;9.13;;;;;;;9.48;84.73;100839.25;5069229;28;20112;-56
2021/05/27 05:25:20;;;;;;;15.10;9.98;;;;;;;9.69;83.52;100844.53;5050384;28;20193;-54
2021/05/27 05:27:46;;;;;;;14.75;8.80;;;;;;;9.66;84.17;100844.53;5079836;28;20071;-54
2021/05/27 05:30:14;;;;;;;17.90;9.68;;;;;;;9.84;83.12;100842.78;5051867;28;20123;-50
2021/05/27 05:32:40;;;;;;;14.50;8.02;;;;;;;9.70;83.93;100840.16;5061707;28;20135;-52
2021/05/27 05:35:11;;;;;;;14.90;9.73;;;;;;;9.67;84.47;100837.53;5060796;28;20497;-49
2021/05/27 05:37:38;;;;;;;14.88;8.68;;;;;;;9.75;84.41;100843.66;5080020;28;21367;-53
2021/05/27 05:40:05;;;;;;;14.70;8.65;;;;;;;9.58;84.67;100842.75;5032106;28;20037;-50
2021/05/27 05:42:31;;;;;;;14.30;8.90;;;;;;;9.70;84.24;100845.38;5064622;28;20377;-53
2021/05/27 05:44:56;;;;;;;16.63;9.35;;;;;;;9.59;84.70;100850.56;5081222;28;20494;-51
2021/05/27 05:47:22;;;;;;;15.02;8.75;;;;;;;9.41;84.83;100859.22;5048194;28;20020;-50
2021/05/27 05:49:48;;;;;;;15.25;8.90;;;;;;;9.33;86.04;100860.94;5073567;28;20040;-51
2021/05/27 05:52:14;;;;;;;19.85;8.95;;;;;;;9.59;85.66;100853.19;5043550;28;20096;-50
2021/05/27 05:54:40;;;;;;;16.05;9.32;;;;;;;9.53;84.79;100858.41;5064681;28;20055;-50
2021/05/27 05:57:06;;;;;;;17.65;8.98;;;;;;;9.31;86.84;100857.47;5044953;28;20067;-52
2021/05/27 05:59:32;;;;;;;17.35;9.63;;;;;;;9.42;86.28;100865.34;5070830;28;20054;-51
2021/05/27 06:01:58;;;;;;;15.40;9.48;;;;;;;9.47;86.60;100863.59;5054136;28;20111;-51
2021/05/27 06:04:25;;;;;;;14.30;8.80;;;;;;;9.44;85.07;100866.19;5035201;28;20041;-53
2021/05/27 06:07:02;;;;;;;14.52;9.52;;;;;;;9.34;87.14;100860.06;5050041;28;20626;-50
2021/05/27 06:09:28;;;;;;;13.32;8.98;;;;;;;9.40;85.40;100873.16;5053681;28;20056;-52
2021/05/27 06:11:53;;;;;;;17.45;9.25;;;;;;;9.47;87.14;100874.91;5056994;28;20044;-50
2021/05/27 06:14:20;;;;;;;20.77;11.00;;;;;;;9.40;86.44;100880.09;5055345;28;20656;-52
2021/05/27 06:16:47;;;;;;;25.13;11.80;;;;;;;9.28;87.63;100887.00;5055885;28;20063;-54
2021/05/27 06:19:13;;;;;;;19.20;10.85;;;;;;;9.28;87.09;100881.78;5077242;28;20055;-49
2021/05/27 06:21:48;;;;;;;16.42;11.13;;;;;;;9.36;85.76;100890.53;5047866;28;20051;-49
2021/05/27 06:24:36;;;;;;;20.52;10.20;;;;;;;9.24;86.33;100897.44;5057488;28;20252;-51
2021/05/27 06:27:02;;;;;;;15.95;9.18;;;;;;;9.31;86.23;100892.22;5070844;28;20481;-51
2021/05/27 06:29:28;;;;;;;20.35;10.20;;;;;;;9.18;86.78;100893.94;5035444;28;20090;-53
2021/05/27 06:31:53;;;;;;;15.77;9.70;;;;;;;9.22;86.11;100905.25;5055639;28;20569;-51
2021/05/27 06:34:19;;;;;;;15.93;9.75;;;;;;;8.95;86.38;100901.63;5057265;28;20127;-50
2021/05/27 06:36:45;;;;;;;17.65;9.10;;;;;;;9.10;87.50;100916.50;5052759;28;20505;-51
2021/05/27 06:39:10;;;;;;;17.50;10.80;;;;;;;9.03;86.66;100919.94;5073678;28;20240;-49
2021/05/27 06:41:36;;;;;;;19.48;11.73;;;;;;;8.95;86.92;100912.06;5073622;28;20044;-50
2021/05/27 06:44:02;;;;;;;19.98;11.85;;;;;;;8.92;87.16;100917.25;5052522;28;20066;-49
2021/05/27 06:46:27;;;;;;;20.05;10.15;;;;;;;9.06;86.80;100909.50;5075613;28;20104;-50
2021/05/27 06:48:54;;;;;;;22.92;9.95;;;;;;;9.01;86.21;100922.53;5073183;28;20080;-50
2021/05/27 06:51:19;;;;;;;18.52;10.23;;;;;;;8.96;86.52;100918.16;5075764;28;20494;-53
2021/05/27 06:53:45;;;;;;;15.75;8.55;;;;;;;8.89;87.01;100921.56;5073292;28;20724;-49
2021/05/27 06:56:19;;;;;;;14.80;8.65;;;;;;;8.90;86.33;100915.50;5051684;28;20039;-49
2021/05/27 06:58:45;;;;;;;18.27;8.73;;;;;;;9.08;87.43;100928.63;5077426;28;20030;-52
2021/05/27 07:01:11;;;;;;;17.95;8.48;;;;;;;8.93;86.66;100926.84;5073498;28;20047;-50
2021/05/27 07:03:37;;;;;;;17.63;8.75;;;;;;;8.90;86.10;100925.94;5070922;28;20232;-49
2021/05/27 07:06:05;;;;;;;15.70;8.48;;;;;;;9.05;86.05;100928.63;5058779;28;20134;-49
2021/05/27 07:08:32;;;;;;;12.95;8.07;;;;;;;8.88;87.41;100931.13;5053411;28;20032;-49
2021/05/27 07:10:58;;;;;;;14.60;9.05;;;;;;;8.88;88.21;100920.72;5076400;28;20060;-49
2021/05/27 07:13:24;;;;;;;17.27;9.18;;;;;;;9.02;86.88;100931.22;5040449;28;20147;-50
2021/05/27 07:15:49;;;;;;;20.90;9.30;;;;;;;8.90;87.78;100939.81;5048952;28;20544;-51
2021/05/27 07:18:15;;;;;;;14.93;8.52;;;;;;;8.85;87.86;100939.81;5031281;28;20078;-49
2021/05/27 07:20:42;;;;;;;16.75;9.18;;;;;;;8.90;88.55;100937.22;5061769;28;20048;-49
2021/05/27 07:23:09;;;;;;;17.13;8.82;;;;;;;8.75;88.38;100940.63;5056598;28;20506;-49
2021/05/27 07:25:35;;;;;;;17.35;9.07;;;;;;;9.07;88.26;100946.88;5055765;28;20051;-49
2021/05/27 07:28:01;;;;;;;19.98;10.40;;;;;;;8.95;88.49;100943.34;5069375;28;20515;-51
2021/05/27 07:30:29;;;;;;;18.75;9.88;;;;;;;8.78;89.07;100939.78;5071599;28;20105;-50
2021/05/27 07:32:56;;;;;;;19.80;10.02;;;;;;;8.70;89.23;100942.31;5057048;28;20186;-50
2021/05/27 07:35:23;;;;;;;21.27;10.25;;;;;;;8.81;89.83;100942.41;5074118;28;20373;-53
2021/05/27 07:37:48;;;;;;;19.20;9.40;;;;;;;9.13;88.40;100953.00;5075427;28;20032;-49
2021/05/27 07:40:14;;;;;;;21.17;10.05;;;;;;;9.00;88.66;100954.69;5078744;28;20443;-50
2021/05/27 07:42:40;;;;;;;16.42;9.27;;;;;;;9.26;88.82;100950.47;5071338;28;20044;-49
2021/05/27 07:45:06;;;;;;;13.98;8.60;;;;;;;9.14;88.17;100954.78;5073368;28;20063;-50
2021/05/27 07:47:34;;;;;;;19.20;8.77;;;;;;;9.18;88.05;100956.53;5074586;28;20479;-49
2021/05/27 07:50:01;;;;;;;14.05;8.15;;;;;;;9.24;88.09;100957.44;5058679;28;20035;-49
2021/05/27 07:52:27;;;;;;;12.52;7.43;;;;;;;9.08;87.93;100959.94;5059497;28;20488;-50
2021/05/27 07:54:53;;;;;;;16.95;8.38;;;;;;;8.95;89.23;100959.00;5046188;28;20046;-51
2021/05/27 07:57:22;;;;;;;20.38;8.68;;;;;;;9.13;88.75;100962.59;5072778;28;20039;-51
2021/05/27 07:59:48;;;;;;;;;;;;;;;8.97;88.83;100967.72;5073258;28;20043;-51
2021/05/27 08:02:13;;;;;;;12.68;7.30;;;;;;;9.11;87.39;100964.31;5064741;28;19916;-51
2021/05/27 08:04:42;;;;;;;16.05;7.68;;;;;;;9.24;88.36;100970.47;5077752;28;20039;-51
2021/05/27 08:07:12;;;;;;;17.75;7.53;;;;;;;9.05;88.99;100967.75;5057602;28;20095;-51
2021/05/27 08:09:38;;;;;;;15.07;7.35;;;;;;;9.14;87.92;100965.19;5050370;28;20122;-52
2021/05/27 08:12:05;;;;;;;14.52;6.47;;;;;;;9.27;87.95;100967.88;5080825;28;20139;-50
2021/05/27 08:14:31;;;;;;;13.88;7.13;;;;;;;9.10;87.96;100973.00;5072852;28;20043;-50
2021/05/27 08:16:57;;;;;;;14.23;7.55;;;;;;;9.14;88.32;100978.25;5032201;28;20058;-51
2021/05/27 08:19:23;;;;;;;14.32;7.18;;;;;;;9.16;89.03;100973.91;5056861;28;20492;-54
2021/05/27 08:21:49;;;;;;;12.50;7.47;;;;;;;9.18;88.25;100977.41;5066919;28;20671;-49
2021/05/27 08:24:14;;;;;;;14.95;7.05;;;;;;;9.19;87.45;100973.03;5077125;27;20032;-51
2021/05/27 08:26:40;;;;;;;11.73;6.50;;;;;;;9.24;87.88;100978.31;5057221;28;20040;-51
2021/05/27 08:29:06;;;;;;;15.20;7.07;;;;;;;9.20;87.68;100990.44;5076791;28;20463;-52
2021/05/27 08:31:32;;;;;;;15.73;7.88;;;;;;;9.08;89.85;100978.19;5079825;28;20040;-52
2021/05/27 08:33:58;;;;;;;15.45;7.43;;;;;;;9.17;88.80;100990.44;5059124;28;20131;-51
2021/05/27 08:36:23;;;;;;;13.25;7.05;;;;;;;9.08;88.92;100985.16;5060966;28;20036;-52
2021/05/27 08:38:49;;;;;;;15.32;8.15;;;;;;;9.11;89.19;100988.66;5078150;28;20083;-51
2021/05/27 08:41:18;;;;;;;14.20;8.48;;;;;;;8.98;88.94;100986.81;5047613;28;21468;-53
2021/05/27 08:43:49;;;;;;;14.10;6.97;;;;;;;9.12;89.41;100992.13;5059065;28;20374;-52
2021/05/27 08:46:16;;;;;;;14.63;7.38;;;;;;;9.32;87.97;100989.66;5075351;28;20050;-53
2021/05/27 08:48:43;;;;;;;13.93;6.75;;;;;;;9.25;88.45;100993.06;5046809;28;20053;-51
2021/05/27 08:51:10;;;;;;;13.85;6.78;;;;;;;9.27;88.99;100991.38;5068122;28;20418;-53
2021/05/27 08:53:36;;;;;;;15.38;6.65;;;;;;;9.34;88.83;100991.38;5077159;28;20032;-51
2021/05/27 08:56:02;;;;;;;12.95;6.40;;;;;;;9.33;88.99;100991.38;5048289;28;20055;-51
2021/05/27 08:58:28;;;;;;;13.48;6.63;;;;;;;9.32;88.56;100989.66;5078321;28;20463;-53
2021/05/27 09:00:55;;;;;;;12.07;6.82;;;;;;;9.29;88.16;100998.34;5053166;28;20047;-52
2021/05/27 09:03:21;;;;;;;12.98;6.55;;;;;;;9.19;89.34;100999.13;5082033;28;20046;-50
2021/05/27 09:05:58;;;;;;;10.88;6.93;;;;;;;9.32;89.10;101002.72;5056832;28;20441;-51
2021/05/27 09:08:29;;;;;;;13.43;6.85;;;;;;;9.30;89.75;101001.81;5076574;28;20043;-50
2021/05/27 09:11:00;;;;;;;12.40;7.07;;;;;;;9.41;89.98;101001.88;5081506;28;20034;-51
2021/05/27 09:13:26;;;;;;;12.63;7.22;;;;;;;9.31;89.19;101008.78;5077912;28;20050;-53
2021/05/27 09:15:51;;;;;;;11.43;6.68;;;;;;;9.30;89.46;101015.72;5052395;28;20032;-54
2021/05/27 09:18:34;;;;;;;14.15;7.60;;;;;;;9.36;89.26;101017.53;5074939;28;20285;-54
2021/05/27 09:21:01;;;;;;;15.98;7.55;;;;;;;9.32;89.45;101020.97;5072508;28;20071;-51
2021/05/27 09:23:27;;;;;;;11.13;7.30;;;;;;;9.37;89.08;101025.34;5059847;28;20530;-52
2021/05/27 09:26:13;;;;;;;14.40;7.93;;;;;;;9.44;89.49;101027.97;5058032;28;20080;-55
2021/05/27 09:28:39;;;;;;;10.68;6.65;;;;;;;9.46;88.56;101032.34;5056004;28;20123;-53
2021/05/27 09:31:07;;;;;;;15.25;7.57;;;;;;;9.36;89.96;101023.59;5058046;28;20188;-51
2021/05/27 09:33:36;;;;;;;14.97;6.77;;;;;;;9.44;88.82;101031.47;5076255;28;20062;-51
2021/05/27 09:36:13;;;;;;;13.13;6.50;;;;;;;9.44;89.44;101036.69;5077130;28;20044;-54
2021/05/27 09:39:00;;;;;;;12.70;7.32;;;;;;;9.34;90.05;101034.88;5059206;28;20225;-51
2021/05/27 09:41:28;;;;;;;12.43;7.45;;;;;;;9.33;89.54;101043.56;5074723;28;20733;-53
2021/05/27 09:44:06;;;;;;;13.18;7.85;;;;;;;9.35;89.70;101034.88;5078344;28;20054;-51
2021/05/27 09:46:55;;;;;;;13.70;7.25;;;;;;;9.30;88.64;101033.97;5054818;28;20075;-52
2021/05/27 09:49:25;;;;;;;16.05;7.78;;;;;;;9.42;89.44;101043.63;5073441;28;20452;-51
2021/05/27 09:51:56;;;;;;;11.95;7.25;;;;;;;9.48;89.56;101042.78;5056918;28;20566;-53
2021/05/27 09:54:42;;;;;;;12.10;7.55;;;;;;;9.43;88.60;101040.16;5059166;28;20040;-54
2021/05/27 09:57:20;;;;;;;12.77;7.57;;;;;;;9.40;88.53;101042.78;5076865;28;20055;-49
2021/05/27 09:59:45;;;;;;;12.85;8.00;;;;;;;9.39;88.87;101041.00;5075869;28;20040;-50
2021/05/27 10:02:12;;;;;;;16.05;8.48;;;;;;;9.44;90.36;101048.84;5057978;28;20071;-50
2021/05/27 10:04:57;;;;;;;15.82;8.73;;;;;;;9.39;90.54;101051.44;5073698;28;20480;-52
2021/05/27 10:07:46;;;;;;;17.80;8.70;;;;;;;9.39;90.01;101059.28;5040256;28;20047;-55
2021/05/27 10:10:17;;;;;;;19.65;8.65;;;;;;;9.45;89.37;101056.69;5053722;28;20051;-50
2021/05/27 10:12:45;;;;;;;12.25;6.72;;;;;;;9.41;90.03;101060.16;5055183;27;20687;-50
2021/05/27 10:15:16;;;;;;;16.92;9.77;;;;;;;9.40;89.36;101066.25;5055183;27;20059;-53
2021/05/27 10:17:42;;;;;;;16.02;9.55;;;;;;;9.37;89.77;101061.00;5054959;28;20655;-54
2021/05/27 10:20:11;;;;;;;18.20;10.15;;;;;;;9.38;90.00;101058.38;5041637;28;20036;-54
2021/05/27 10:22:37;;;;;;;15.40;10.38;;;;;;;9.46;90.23;101057.59;5056567;27;20117;-50
2021/05/27 10:25:09;;;;;;;16.35;9.90;;;;;;;9.44;90.53;101068.03;5070026;28;20557;-50
2021/05/27 10:27:36;;;;;;;15.63;8.52;;;;;;;9.33;89.66;101061.81;5075122;28;20035;-52
2021/05/27 10:30:05;;;;;;;12.85;8.70;;;;;;;9.51;87.99;101061.97;5077415;28;20059;-50
2021/05/27 10:32:33;;;;;;;13.18;7.40;;;;;;;9.44;89.06;101062.81;5084225;28;20457;-51
2021/05/27 10:34:58;;;;;;;19.50;8.67;;;;;;;9.55;88.34;101068.06;5076751;28;20031;-50
2021/05/27 10:37:33;;;;;;;15.48;8.23;;;;;;;9.43;89.54;101057.53;5054569;28;20446;-50
2021/05/27 10:40:03;;;;;;;14.18;8.40;;;;;;;9.27;90.61;101070.50;5074677;28;20047;-54
2021/05/27 10:42:57;;;;;;;12.77;8.48;;;;;;;9.37;89.97;101076.66;5041228;28;20399;-51
2021/05/27 10:45:24;;;;;;;15.43;8.55;;;;;;;9.48;89.78;101077.59;5074299;28;20044;-53
2021/05/27 10:48:14;;;;;;;13.93;7.93;;;;;;;9.41;88.71;101073.19;5072910;28;20044;-56
2021/05/27 10:51:15;;;;;;;14.82;8.65;;;;;;;9.46;89.48;101071.50;5065727;28;20069;-50
2021/05/27 10:53:39;;;;;;;15.68;8.20;;;;;;;9.41;88.48;101075.81;5070698;28;20049;-53
2021/05/27 10:56:10;;;;;;;14.18;8.65;;;;;;;9.44;89.26;101075.84;5077262;28;20075;-53
2021/05/27 10:59:05;;;;;;;14.35;8.43;;;;;;;9.46;89.58;101079.31;5072238;28;20048;-55
2021/05/27 11:01:31;;;;;;;14.52;8.43;;;;;;;9.51;90.26;101082.84;5072472;28;20074;-51
2021/05/27 11:03:59;;;;;;;15.02;8.80;;;;;;;9.50;90.14;101075.88;5074225;28;20047;-52
2021/05/27 11:06:38;;;;;;;13.23;7.97;;;;;;;9.59;89.68;101080.25;5074273;28;20046;-52
2021/05/27 11:11:43;;;;;;;11.70;7.97;;;;;;;9.62;89.09;101079.41;5075298;28;20047;-55
2021/05/27 11:14:26;;;;;;;15.65;9.13;;;;;;;9.58;89.48;101080.25;5075720;28;20126;-54
2021/05/27 11:17:06;;;;;;;16.05;8.18;;;;;;;9.54;90.47;101088.06;5073725;28;20298;-53
2021/05/27 11:22:35;;;;;;;15.93;8.60;;;;;;;9.67;89.70;101080.31;5048162;28;20075;-55
2021/05/27 11:25:07;;;;;;;15.23;9.02;;;;;;;9.67;89.44;101088.16;5073851;28;20036;-52
2021/05/27 11:27:43;;;;;;;15.23;8.00;;;;;;;9.62;88.57;101082.91;5074852;28;20038;-51
2021/05/27 11:30:26;;;;;;;16.17;9.02;;;;;;;9.65;88.65;101087.25;5071553;28;20105;-52
2021/05/27 11:33:04;;;;;;;16.42;9.00;;;;;;;9.61;89.32;101089.00;5056126;28;20043;-51
2021/05/27 11:35:41;;;;;;;11.65;7.43;;;;;;;9.58;89.92;101095.91;5073962;28;20407;-55
2021/05/27 11:38:13;;;;;;;16.73;7.70;;;;;;;9.54;90.29;101087.22;5074826;28;20033;-52
2021/05/27 11:40:42;;;;;;;12.73;8.20;;;;;;;9.65;89.34;101092.47;5074834;28;20099;-52
2021/05/27 11:43:09;;;;;;;12.45;7.53;;;;;;;9.61;90.35;101101.16;5060621;28;20058;-53
2021/05/27 11:45:57;;;;;;;14.63;8.00;;;;;;;9.68;89.05;101103.81;5075290;28;20349;-53
2021/05/27 11:48:39;;;;;;;;;;;;;;;9.62;89.69;101103.81;5064527;28;20131;-53